Time;durP1;ratioP1;P1;durP2;ratioP2;P2;SDS_P1;SDS_P2;PMS_P1;PMS_P2;Temp;Humidity;BMP_temperature;BMP_pressure;BME280_temperature;BME280_humidity;BME280_pressure;Samples;Min_cycle;Max_cycle;Signal;HPM_P1;HPM_P2
2021/09/14 00:05:02;;;;;;;9.75;8.00;;;15.90;99.90;;;;;;5032036;28;20248;-91
2021/09/14 00:07:30;;;;;;;9.25;8.35;;;16.00;99.90;;;;;;5032658;28;20595;-92
2021/09/14 00:09:57;;;;;;;8.85;7.97;;;15.90;99.90;;;;;;5026018;28;20654;-92
2021/09/14 00:12:24;;;;;;;8.98;8.07;;;15.90;99.90;;;;;;5018031;28;20232;-93
2021/09/14 00:14:51;;;;;;;9.85;8.38;;;15.80;99.90;;;;;;5035954;28;20218;-92
2021/09/14 00:17:18;;;;;;;9.40;8.50;;;15.70;99.90;;;;;;5004930;28;20237;-92
2021/09/14 00:19:45;;;;;;;9.90;8.90;;;15.50;99.90;;;;;;5028449;28;20199;-92
2021/09/14 00:22:14;;;;;;;9.23;8.32;;;15.40;99.90;;;;;;5017657;28;20651;-91
2021/09/14 00:25:01;;;;;;;9.10;8.27;;;15.40;99.90;;;;;;5037474;28;20209;-91
2021/09/14 00:27:28;;;;;;;9.10;8.30;;;15.30;99.90;;;;;;5051212;28;20288;-92
2021/09/14 00:29:55;;;;;;;8.75;7.95;;;15.30;99.90;;;;;;5050516;28;20214;-91
2021/09/14 00:32:22;;;;;;;8.50;7.72;;;15.30;99.90;;;;;;5019516;28;20645;-93
2021/09/14 00:34:49;;;;;;;9.10;8.20;;;15.30;99.90;;;;;;5037369;28;20293;-92
2021/09/14 00:37:18;;;;;;;10.32;8.00;;;15.30;99.90;;;;;;5030729;28;20233;-92
2021/09/14 00:39:45;;;;;;;10.05;7.95;;;15.30;99.90;;;;;;5026688;28;20201;-91
2021/09/14 00:42:12;;;;;;;9.40;8.10;;;15.30;99.90;;;;;;5027112;28;20228;-92
2021/09/14 00:44:39;;;;;;;10.38;8.35;;;15.20;99.90;;;;;;5019535;28;20244;-91
2021/09/14 00:47:06;;;;;;;9.95;8.10;;;15.20;99.90;;;;;;5027817;28;20297;-92
2021/09/14 00:49:33;;;;;;;9.13;8.20;;;15.10;99.90;;;;;;5017583;28;20229;-92
2021/09/14 00:52:00;;;;;;;10.32;8.15;;;15.10;99.90;;;;;;5036658;28;20313;-92
2021/09/14 00:54:29;;;;;;;8.15;7.45;;;15.20;99.90;;;;;;5012645;28;20295;-91
2021/09/14 00:56:58;;;;;;;8.07;7.28;;;15.30;99.90;;;;;;5018966;28;20309;-92
2021/09/14 00:59:25;;;;;;;8.70;7.70;;;15.30;99.90;;;;;;5019577;28;20214;-92
2021/09/14 01:01:54;;;;;;;8.48;7.68;;;15.30;99.90;;;;;;5032786;28;20237;-92
2021/09/14 01:04:21;;;;;;;8.13;7.28;;;15.20;99.90;;;;;;5030092;28;20680;-92
2021/09/14 01:06:49;;;;;;;8.73;7.72;;;15.20;99.90;;;;;;5035924;28;20234;-92
2021/09/14 01:09:17;;;;;;;8.88;7.75;;;15.10;99.90;;;;;;5027922;28;20209;-92
2021/09/14 01:14:26;;;;;;;8.55;7.32;;;15.10;99.90;;;;;;5015184;28;20728;-91
2021/09/14 01:16:54;;;;;;;8.82;8.00;;;15.00;99.90;;;;;;5013286;28;20238;-92
2021/09/14 01:19:21;;;;;;;7.97;7.20;;;15.00;99.90;;;;;;5035721;28;20712;-92
2021/09/14 01:21:48;;;;;;;8.30;7.50;;;15.00;99.90;;;;;;5038740;28;20231;-92
2021/09/14 01:27:02;;;;;;;8.30;7.45;;;15.10;99.90;;;;;;5022371;28;20214;-92
2021/09/14 01:32:14;;;;;;;8.00;7.22;;;15.20;99.90;;;;;;5029378;28;20596;-92
2021/09/14 01:34:41;;;;;;;8.52;7.72;;;15.20;99.90;;;;;;5019454;28;20723;-91
2021/09/14 01:37:08;;;;;;;8.75;7.85;;;15.10;99.90;;;;;;5038534;28;20240;-92
2021/09/14 01:39:37;;;;;;;7.75;7.05;;;15.10;99.90;;;;;;5018477;28;20285;-92
2021/09/14 01:42:04;;;;;;;7.65;6.95;;;15.20;99.90;;;;;;5017199;28;20236;-92
2021/09/14 01:44:31;;;;;;;7.78;7.05;;;15.20;99.90;;;;;;5034203;28;20547;-94
2021/09/14 01:47:00;;;;;;;7.70;7.03;;;15.10;99.90;;;;;;5036452;28;20234;-92
2021/09/14 01:49:27;;;;;;;9.13;6.68;;;15.10;99.90;;;;;;5040539;28;20281;-91
2021/09/14 01:51:55;;;;;;;8.13;7.35;;;15.00;99.90;;;;;;5014485;28;20308;-92
2021/09/14 01:54:22;;;;;;;8.27;7.38;;;14.90;99.90;;;;;;5040110;28;20215;-92
2021/09/14 01:56:51;;;;;;;13.25;7.78;;;14.80;99.90;;;;;;5018850;28;20686;-92
2021/09/14 01:59:18;;;;;;;7.85;7.05;;;14.80;99.90;;;;;;5034564;28;20229;-92
2021/09/14 02:01:52;;;;;;;7.88;7.18;;;14.90;99.90;;;;;;5021365;28;20226;-92
2021/09/14 02:04:30;;;;;;;7.63;6.82;;;14.90;99.90;;;;;;5035655;28;20214;-93
2021/09/14 02:07:14;;;;;;;7.45;6.78;;;14.90;99.90;;;;;;5041605;28;20662;-93
2021/09/14 02:24:20;;;;;;;7.47;6.78;;;15.00;99.90;;;;;;5035512;28;20333;-92
2021/09/14 02:41:16;;;;;;;7.25;6.38;;;14.90;99.90;;;;;;4943609;29;20202;-91
2021/09/14 02:44:01;;;;;;;7.93;7.13;;;15.00;99.90;;;;;;4937170;29;20236;-92
2021/09/14 03:00:49;;;;;;;7.30;6.68;;;14.70;99.90;;;;;;5023740;28;20229;-92
2021/09/14 03:03:18;;;;;;;7.70;7.00;;;14.80;99.90;;;;;;5018783;28;20679;-91
2021/09/14 03:05:45;;;;;;;6.97;6.32;;;14.80;99.90;;;;;;5019485;28;20198;-93
2021/09/14 03:08:12;;;;;;;8.30;6.65;;;14.80;99.90;;;;;;5016077;28;20233;-91
2021/09/14 03:10:40;;;;;;;7.93;6.75;;;14.80;99.90;;;;;;5033371;28;20208;-92
2021/09/14 03:13:07;;;;;;;8.23;6.35;;;14.80;99.90;;;;;;5017530;28;20686;-92
2021/09/14 03:15:34;;;;;;;7.22;6.53;;;14.70;99.90;;;;;;5040639;28;20674;-92
2021/09/14 03:18:01;;;;;;;7.40;6.75;;;14.70;99.90;;;;;;5040570;28;20230;-92
2021/09/14 03:20:30;;;;;;;10.20;6.88;;;14.50;99.90;;;;;;5024820;28;20225;-91
2021/09/14 03:22:57;;;;;;;7.82;7.05;;;14.50;99.90;;;;;;5035695;28;20230;-92
2021/09/14 03:25:24;;;;;;;7.70;7.00;;;14.50;99.90;;;;;;5029808;28;20213;-92
2021/09/14 03:27:52;;;;;;;7.50;6.75;;;14.50;99.90;;;;;;5034074;28;20233;-92
2021/09/14 03:30:19;;;;;;;6.97;6.38;;;14.50;99.90;;;;;;5017277;28;20195;-92
2021/09/14 03:32:47;;;;;;;7.15;6.45;;;14.60;99.90;;;;;;5012997;28;20231;-92
2021/09/14 03:35:14;;;;;;;7.13;6.35;;;14.60;99.90;;;;;;5033970;28;20225;-92
2021/09/14 03:40:34;;;;;;;7.00;6.30;;;14.50;99.90;;;;;;5034505;28;20286;-92
2021/09/14 03:43:02;;;;;;;7.75;6.30;;;14.50;99.90;;;;;;5035634;28;20236;-92
2021/09/14 03:45:30;;;;;;;9.73;6.60;;;14.40;99.90;;;;;;5018490;28;20248;-93
2021/09/14 03:47:57;;;;;;;7.93;6.40;;;14.30;99.90;;;;;;5017689;28;20226;-94
2021/09/14 03:51:17;;;;;;;7.18;6.32;;;14.30;99.90;;;;;;4996917;28;20218;-93
2021/09/14 03:56:34;;;;;;;6.95;6.28;;;14.40;99.90;;;;;;5013274;28;20231;-93
2021/09/14 03:59:07;;;;;;;6.68;6.10;;;14.40;99.90;;;;;;5013825;28;20205;-94
2021/09/14 04:01:37;;;;;;;7.10;6.50;;;14.30;99.90;;;;;;5012816;28;20317;-93
2021/09/14 04:04:11;;;;;;;6.53;5.93;;;14.40;99.90;;;;;;5014091;28;20219;-93
2021/09/14 04:09:42;;;;;;;6.93;6.28;;;14.20;99.90;;;;;;4980854;28;20191;-93
2021/09/14 04:45:50;;;;;;;7.13;6.38;;;14.10;99.90;;;;;;5024734;28;20214;-87
2021/09/14 04:48:17;;;;;;;7.05;6.43;;;14.20;99.90;;;;;;5028841;28;20230;-89
2021/09/14 04:50:44;;;;;;;7.38;6.35;;;14.10;99.90;;;;;;5023684;28;20647;-90
2021/09/14 04:53:11;;;;;;;7.40;6.70;;;14.10;99.90;;;;;;5027248;28;20760;-87
2021/09/14 04:55:38;;;;;;;7.25;6.55;;;14.10;99.90;;;;;;5031382;28;20233;-89
2021/09/14 04:58:05;;;;;;;8.63;6.32;;;14.10;99.90;;;;;;5034208;28;20251;-90
2021/09/14 05:00:32;;;;;;;7.25;6.55;;;14.00;99.90;;;;;;5023010;28;20263;-89
2021/09/14 05:03:01;;;;;;;8.32;7.32;;;14.00;99.90;;;;;;5040748;28;20226;-88
2021/09/14 05:05:28;;;;;;;7.55;6.82;;;14.10;99.90;;;;;;5031572;28;20263;-89
2021/09/14 05:07:55;;;;;;;7.85;6.30;;;14.10;99.90;;;;;;5026028;28;20347;-88
2021/09/14 05:10:41;;;;;;;6.97;6.32;;;14.00;99.90;;;;;;5035451;28;20223;-89
2021/09/14 05:13:09;;;;;;;9.30;7.38;;;14.10;99.90;;;;;;5036361;28;20304;-90
2021/09/14 05:15:36;;;;;;;6.88;6.18;;;14.20;99.90;;;;;;5043960;28;20317;-92
2021/09/14 05:18:10;;;;;;;8.25;6.22;;;14.20;99.90;;;;;;5026194;28;20230;-91
2021/09/14 05:21:12;;;;;;;8.70;7.15;;;14.30;99.90;;;;;;5051837;28;20189;-91
2021/09/14 05:23:39;;;;;;;8.15;6.30;;;14.30;99.90;;;;;;5034224;28;20298;-91
2021/09/14 05:26:07;;;;;;;7.18;6.47;;;14.40;99.90;;;;;;5039001;28;20194;-92
2021/09/14 05:28:37;;;;;;;7.35;6.50;;;14.40;99.90;;;;;;5040332;28;20230;-93
2021/09/14 05:34:42;;;;;;;6.70;6.10;;;14.40;99.90;;;;;;5059406;28;20522;-92
2021/09/14 05:37:09;;;;;;;6.85;6.18;;;14.40;99.90;;;;;;5049497;28;20701;-89
2021/09/14 05:39:37;;;;;;;8.77;6.25;;;14.50;99.90;;;;;;5016886;28;20192;-90
2021/09/14 05:42:04;;;;;;;8.95;6.63;;;14.60;99.90;;;;;;5016814;28;20317;-89
2021/09/14 05:44:34;;;;;;;13.00;8.00;;;14.60;99.90;;;;;;5023699;28;20692;-91
2021/09/14 05:47:01;;;;;;;12.88;7.55;;;14.70;99.90;;;;;;5034654;28;20222;-90
2021/09/14 05:49:30;;;;;;;10.82;7.35;;;14.70;99.90;;;;;;5036056;28;20228;-91
2021/09/14 05:51:58;;;;;;;16.48;11.70;;;14.70;99.90;;;;;;5018002;28;20226;-90
2021/09/14 05:54:26;;;;;;;22.25;17.00;;;14.80;99.90;;;;;;5028521;28;20206;-91
2021/09/14 05:56:53;;;;;;;9.57;7.63;;;14.90;99.90;;;;;;5032400;28;20309;-90
2021/09/14 05:59:20;;;;;;;11.98;9.00;;;14.90;99.90;;;;;;5033451;28;20288;-89
2021/09/14 06:05:05;;;;;;;14.65;11.70;;;14.90;99.90;;;;;;5034196;28;20202;-89
2021/09/14 06:07:32;;;;;;;15.00;12.05;;;15.10;99.90;;;;;;5011344;28;20587;-91
2021/09/14 06:10:00;;;;;;;11.45;8.82;;;15.20;99.90;;;;;;5022117;28;20206;-92
2021/09/14 06:12:29;;;;;;;12.70;9.00;;;15.30;99.90;;;;;;5021881;28;20317;-92
2021/09/14 06:14:57;;;;;;;11.90;9.30;;;15.40;99.90;;;;;;5009728;28;20229;-93
2021/09/14 06:17:24;;;;;;;8.90;8.00;;;15.50;99.90;;;;;;5028631;28;20620;-93
2021/09/14 06:19:51;;;;;;;7.63;6.43;;;15.60;99.90;;;;;;5029580;28;20296;-94
2021/09/14 06:31:37;;;;;;;7.32;6.28;;;15.80;99.90;;;;;;5007889;28;20204;-93
2021/09/14 06:34:10;;;;;;;7.43;6.70;;;15.80;99.90;;;;;;5034252;28;20220;-91
2021/09/14 06:36:37;;;;;;;9.68;6.43;;;15.90;99.90;;;;;;5030347;28;20234;-92
2021/09/14 06:39:06;;;;;;;9.00;6.47;;;15.90;99.90;;;;;;5005207;28;20200;-92
2021/09/14 06:41:34;;;;;;;8.18;6.47;;;16.00;99.90;;;;;;5009770;28;20201;-93
2021/09/14 06:44:01;;;;;;;7.10;6.15;;;16.20;99.90;;;;;;5011222;28;20212;-92
2021/09/14 06:46:29;;;;;;;7.10;6.38;;;16.30;99.80;;;;;;5031198;28;20229;-91
2021/09/14 06:48:56;;;;;;;6.82;6.22;;;16.30;99.60;;;;;;5035471;28;20203;-91
2021/09/14 06:51:23;;;;;;;7.80;6.80;;;16.40;99.30;;;;;;5036530;28;20849;-91
2021/09/14 06:53:50;;;;;;;6.90;6.18;;;16.30;99.10;;;;;;5031145;28;20298;-93
2021/09/14 06:56:24;;;;;;;6.70;6.00;;;16.40;99.30;;;;;;5014711;28;20234;-92
2021/09/14 06:58:51;;;;;;;8.45;6.10;;;16.60;99.30;;;;;;5026433;28;20237;-92
2021/09/14 07:03:59;;;;;;;7.03;6.32;;;16.70;98.80;;;;;;5046625;28;20202;-92
2021/09/14 07:06:40;;;;;;;6.68;6.07;;;16.80;98.90;;;;;;4984781;28;20206;-92
2021/09/14 07:09:08;;;;;;;9.88;6.07;;;16.90;99.00;;;;;;5021839;28;20200;-92
2021/09/14 07:11:36;;;;;;;7.40;6.05;;;16.90;98.80;;;;;;5033462;28;20230;-93
2021/09/14 07:14:04;;;;;;;6.93;5.93;;;17.00;98.90;;;;;;5023337;28;20305;-91
2021/09/14 07:16:31;;;;;;;6.80;5.88;;;17.00;98.80;;;;;;5014810;28;20229;-92
2021/09/14 07:18:58;;;;;;;7.07;5.90;;;17.10;98.60;;;;;;5034543;28;20202;-92
2021/09/14 07:21:27;;;;;;;6.65;6.05;;;17.20;98.70;;;;;;5034583;28;20226;-91
2021/09/14 07:23:54;;;;;;;6.22;5.63;;;17.20;97.40;;;;;;5039836;28;20201;-90
2021/09/14 07:26:21;;;;;;;6.85;6.15;;;17.30;97.60;;;;;;5034882;28;20313;-92
2021/09/14 07:28:50;;;;;;;6.50;5.45;;;17.40;97.50;;;;;;5017275;28;20209;-91
2021/09/14 07:31:18;;;;;;;6.18;5.57;;;17.50;97.60;;;;;;5014131;28;20199;-92
2021/09/14 07:33:45;;;;;;;6.40;5.80;;;17.60;97.50;;;;;;5018786;28;20282;-93
2021/09/14 07:36:12;;;;;;;6.50;5.43;;;17.70;96.70;;;;;;5023469;28;20320;-92
2021/09/14 07:38:42;;;;;;;6.50;5.50;;;17.90;96.70;;;;;;5036104;28;20616;-91
2021/09/14 07:41:10;;;;;;;6.15;5.60;;;18.00;96.20;;;;;;5024537;28;20188;-91
2021/09/14 07:43:37;;;;;;;6.00;5.40;;;18.10;95.60;;;;;;5033734;28;20322;-92
2021/09/14 07:46:09;;;;;;;6.97;5.15;;;18.30;94.60;;;;;;5020787;28;20680;-91
2021/09/14 07:48:36;;;;;;;5.95;5.45;;;18.40;94.40;;;;;;5051546;28;20230;-91
2021/09/14 07:51:04;;;;;;;6.97;5.63;;;18.50;94.40;;;;;;5037472;28;20238;-90
2021/09/14 07:53:31;;;;;;;6.10;5.32;;;18.60;94.30;;;;;;5029286;28;20301;-91
2021/09/14 07:55:59;;;;;;;12.65;7.72;;;18.70;93.90;;;;;;5017098;28;20218;-90
2021/09/14 07:58:26;;;;;;;5.88;5.32;;;18.70;93.90;;;;;;5023465;28;20237;-90
2021/09/14 08:00:53;;;;;;;6.53;5.88;;;18.80;94.00;;;;;;5037539;28;20282;-90
2021/09/14 08:03:24;;;;;;;6.32;4.90;;;18.80;93.60;;;;;;5020848;28;20318;-91
2021/09/14 08:05:51;;;;;;;7.32;5.40;;;18.90;93.60;;;;;;5034137;28;20262;-91
2021/09/14 08:08:19;;;;;;;6.65;5.47;;;19.00;93.40;;;;;;5027539;28;20321;-91
2021/09/14 08:10:46;;;;;;;6.38;5.63;;;19.20;93.20;;;;;;5009473;28;20195;-91
2021/09/14 08:13:14;;;;;;;11.40;5.75;;;19.30;93.20;;;;;;5026446;28;20306;-90
2021/09/14 08:15:41;;;;;;;6.32;5.20;;;19.40;92.80;;;;;;5024692;28;20209;-92
2021/09/14 08:18:09;;;;;;;7.53;5.57;;;19.60;92.60;;;;;;5033225;28;20258;-90
2021/09/14 08:23:18;;;;;;;9.10;5.65;;;19.80;92.00;;;;;;5030670;28;20276;-90
2021/09/14 08:25:45;;;;;;;6.53;5.53;;;19.80;91.60;;;;;;5021527;28;20209;-90
2021/09/14 08:28:13;;;;;;;7.20;5.25;;;19.90;91.20;;;;;;5015553;28;20222;-90
2021/09/14 08:30:47;;;;;;;5.72;5.20;;;20.10;90.60;;;;;;5043055;28;20247;-91
2021/09/14 08:33:14;;;;;;;7.63;5.40;;;20.20;90.30;;;;;;5030027;28;20277;-90
2021/09/14 08:35:42;;;;;;;5.82;5.15;;;20.40;89.80;;;;;;5019810;28;20218;-90
2021/09/14 08:38:10;;;;;;;6.22;5.38;;;20.50;88.90;;;;;;5040913;28;20306;-89
2021/09/14 08:40:37;;;;;;;5.63;5.03;;;20.60;89.10;;;;;;5017690;28;20210;-90
2021/09/14 08:43:04;;;;;;;5.75;5.22;;;20.60;89.00;;;;;;5045307;28;20225;-90
2021/09/14 08:45:32;;;;;;;6.05;5.38;;;20.70;88.80;;;;;;5048777;28;20234;-90
2021/09/14 08:48:00;;;;;;;5.68;5.18;;;20.70;84.80;;;;;;5038256;28;20309;-90
2021/09/14 08:50:27;;;;;;;5.72;5.13;;;20.90;85.70;;;;;;5016268;28;20290;-91
2021/09/14 08:52:56;;;;;;;5.20;4.70;;;21.20;84.00;;;;;;5015449;28;20226;-90
2021/09/14 08:55:23;;;;;;;5.80;4.70;;;21.80;82.10;;;;;;5039959;28;20317;-85
2021/09/14 08:57:51;;;;;;;7.20;4.68;;;23.10;72.40;;;;;;5031188;28;20682;-88
2021/09/14 09:00:30;;;;;;;5.90;4.60;;;25.30;59.50;;;;;;5031319;28;20244;-90
2021/09/14 09:02:58;;;;;;;8.20;4.72;;;26.10;47.00;;;;;;5014377;28;20652;-89
2021/09/14 09:05:32;;;;;;;4.45;4.15;;;28.00;38.10;;;;;;5020606;28;20198;-89
2021/09/14 09:08:01;;;;;;;8.52;4.90;;;29.40;32.50;;;;;;5036183;28;20241;-89
2021/09/14 09:10:28;;;;;;;5.68;5.03;;;29.90;30.40;;;;;;5044048;28;20249;-88
2021/09/14 09:12:57;;;;;;;5.97;4.70;;;30.10;27.30;;;;;;5035763;28;20337;-88
2021/09/14 09:15:28;;;;;;;5.13;4.60;;;29.80;28.00;;;;;;5029160;28;20230;-88
2021/09/14 09:18:07;;;;;;;4.90;4.50;;;30.00;27.60;;;;;;5027461;28;20694;-88
2021/09/14 09:20:36;;;;;;;4.53;4.22;;;30.20;27.50;;;;;;5026232;28;20190;-88
2021/09/14 09:23:13;;;;;;;4.68;4.30;;;29.70;26.30;;;;;;5031594;28;20232;-90
2021/09/14 09:25:40;;;;;;;4.97;4.68;;;31.00;25.80;;;;;;5023449;28;20281;-91
2021/09/14 09:28:11;;;;;;;5.50;4.70;;;32.30;24.70;;;;;;5019316;28;20253;-90
2021/09/14 09:30:41;;;;;;;5.10;4.70;;;32.80;20.00;;;;;;5024048;28;20705;-92
2021/09/14 09:33:09;;;;;;;5.32;4.95;;;33.70;18.50;;;;;;5028889;28;20229;-90
2021/09/14 09:35:37;;;;;;;5.32;4.93;;;34.10;18.70;;;;;;5026280;28;20225;-92
2021/09/14 09:38:05;;;;;;;5.93;4.82;;;33.90;18.60;;;;;;5024575;28;20712;-91
2021/09/14 09:40:36;;;;;;;4.82;4.43;;;33.80;18.50;;;;;;5041900;28;20209;-90
2021/09/14 09:45:53;;;;;;;5.78;5.15;;;34.20;17.20;;;;;;5025279;28;20612;-89
2021/09/14 09:48:21;;;;;;;5.63;5.22;;;34.50;17.60;;;;;;4990522;28;20226;-89
2021/09/14 09:50:48;;;;;;;5.18;4.78;;;34.20;17.70;;;;;;5013137;28;20202;-89
2021/09/14 09:53:15;;;;;;;5.20;4.80;;;33.40;18.30;;;;;;5029152;28;20308;-89
2021/09/14 09:55:45;;;;;;;5.45;4.95;;;33.10;18.20;;;;;;5037837;28;20221;-91
2021/09/14 09:58:19;;;;;;;5.15;4.85;;;33.10;18.20;;;;;;4995433;28;20220;-91
2021/09/14 10:00:56;;;;;;;6.03;5.50;;;33.40;18.30;;;;;;5039047;28;20201;-91
2021/09/14 10:03:28;;;;;;;5.30;5.00;;;32.90;18.00;;;;;;5047703;28;20194;-89
2021/09/14 10:05:58;;;;;;;5.70;5.30;;;33.50;18.40;;;;;;5014509;28;20702;-91
2021/09/14 10:08:28;;;;;;;5.40;5.00;;;33.00;18.10;;;;;;5010122;28;20204;-91
2021/09/14 10:10:58;;;;;;;5.28;4.78;;;33.00;19.00;;;;;;5012380;28;20728;-91
2021/09/14 10:13:32;;;;;;;5.35;5.05;;;33.30;18.30;;;;;;5026058;28;20229;-90
2021/09/14 10:15:59;;;;;;;5.85;5.20;;;33.00;18.10;;;;;;5026536;28;20574;-91
2021/09/14 10:18:28;;;;;;;5.53;5.13;;;33.20;18.20;;;;;;5027600;28;20708;-92
2021/09/14 10:20:55;;;;;;;4.90;4.55;;;34.00;18.60;;;;;;5030613;28;20833;-91
2021/09/14 10:23:24;;;;;;;5.05;4.63;;;34.30;15.60;;;;;;5026622;28;20229;-91
2021/09/14 10:26:06;;;;;;;5.60;5.13;;;33.70;17.60;;;;;;5045979;28;20197;-91
2021/09/14 10:28:45;;;;;;;5.28;4.88;;;34.00;17.20;;;;;;5030203;28;20229;-91
2021/09/14 10:31:26;;;;;;;4.93;4.57;;;33.70;17.30;;;;;;5027842;28;20222;-93
2021/09/14 10:34:05;;;;;;;5.60;5.20;;;34.40;16.70;;;;;;5015877;28;20344;-89
2021/09/14 10:36:34;;;;;;;5.68;5.28;;;34.30;16.20;;;;;;5032907;28;20248;-89
2021/09/14 10:39:01;;;;;;;5.50;5.05;;;33.60;17.60;;;;;;5028565;28;20213;-89
2021/09/14 10:41:40;;;;;;;5.45;5.05;;;33.60;17.00;;;;;;5028617;28;20690;-92
2021/09/14 10:44:10;;;;;;;5.63;5.22;;;33.60;18.40;;;;;;5026181;28;20202;-92
2021/09/14 10:46:38;;;;;;;5.30;4.90;;;33.80;16.80;;;;;;5027851;28;20233;-91
2021/09/14 10:49:14;;;;;;;5.30;4.90;;;33.20;18.20;;;;;;5034364;28;20208;-90
2021/09/14 10:51:41;;;;;;;5.97;5.47;;;32.90;18.10;;;;;;5025345;28;20232;-92
2021/09/14 10:54:19;;;;;;;4.95;4.53;;;33.00;19.90;;;;;;5035173;28;20197;-90
2021/09/14 10:56:51;;;;;;;6.88;6.38;;;32.70;18.00;;;;;;5024511;28;20230;-88
2021/09/14 10:59:18;;;;;;;5.18;4.80;;;32.50;17.90;;;;;;5028691;28;20190;-87
2021/09/14 11:01:47;;;;;;;5.32;4.80;;;31.30;19.90;;;;;;5024266;28;20222;-90
2021/09/14 11:04:15;;;;;;;4.78;4.47;;;30.40;24.10;;;;;;5029799;28;20931;-87
2021/09/14 11:06:48;;;;;;;5.13;4.72;;;30.40;23.20;;;;;;5023377;28;20239;-88
2021/09/14 11:09:18;;;;;;;4.57;4.22;;;30.10;22.90;;;;;;5023833;28;20206;-89
2021/09/14 11:11:51;;;;;;;5.15;4.82;;;29.40;27.30;;;;;;5026284;28;20242;-90
2021/09/14 11:14:17;;;;;;;5.18;4.53;;;28.90;25.40;;;;;;5027678;28;20305;-88
2021/09/14 11:16:46;;;;;;;5.15;4.70;;;28.50;29.00;;;;;;5028705;28;20253;-89
2021/09/14 11:19:13;;;;;;;4.95;4.55;;;27.70;28.30;;;;;;5023549;28;20210;-88
2021/09/14 11:21:44;;;;;;;5.10;4.50;;;27.20;30.90;;;;;;5032282;28;20289;-88
2021/09/14 11:24:12;;;;;;;6.60;5.05;;;27.20;32.50;;;;;;5031065;28;20536;-89
2021/09/14 11:26:39;;;;;;;6.40;5.18;;;27.00;33.70;;;;;;5024818;28;20234;-87
2021/09/14 11:29:08;;;;;;;5.32;4.82;;;27.00;32.30;;;;;;5033713;28;20198;-89
2021/09/14 11:31:38;;;;;;;5.88;4.65;;;26.90;32.20;;;;;;5024270;28;20293;-87
2021/09/14 11:34:06;;;;;;;4.82;4.43;;;26.90;34.40;;;;;;5024707;28;20237;-86
2021/09/14 11:36:35;;;;;;;9.02;5.18;;;26.70;33.30;;;;;;5025524;28;20223;-88
2021/09/14 11:39:04;;;;;;;6.18;4.70;;;26.80;34.60;;;;;;5022247;28;20207;-87
2021/09/14 11:41:39;;;;;;;7.65;5.25;;;26.60;34.60;;;;;;5023637;28;20203;-87
2021/09/14 11:44:08;;;;;;;5.07;4.63;;;26.60;37.30;;;;;;5025931;28;20253;-85
2021/09/14 11:46:46;;;;;;;6.03;5.25;;;26.40;34.70;;;;;;5032827;28;20289;-87
2021/09/14 11:49:13;;;;;;;6.43;5.00;;;26.40;34.80;;;;;;5027208;28;20768;-88
2021/09/14 11:51:42;;;;;;;5.68;4.68;;;26.40;34.60;;;;;;5025694;28;20566;-87
2021/09/14 11:54:11;;;;;;;5.20;4.75;;;26.60;33.40;;;;;;5037236;28;20222;-86
2021/09/14 11:56:38;;;;;;;5.57;5.10;;;26.40;33.70;;;;;;5037079;28;20298;-88
2021/09/14 11:59:16;;;;;;;5.50;4.85;;;26.50;34.40;;;;;;5025778;28;20290;-87
2021/09/14 12:01:45;;;;;;;5.43;4.78;;;26.60;32.80;;;;;;5033281;28;20225;-87
2021/09/14 12:04:16;;;;;;;5.60;5.10;;;26.60;33.20;;;;;;5030526;28;20283;-87
2021/09/14 12:06:50;;;;;;;6.82;5.20;;;26.50;34.70;;;;;;5028786;28;20302;-87
2021/09/14 12:09:19;;;;;;;5.70;5.20;;;26.60;33.70;;;;;;5022805;28;20209;-87
2021/09/14 12:11:47;;;;;;;5.30;4.90;;;26.60;34.70;;;;;;5027740;28;20232;-87
2021/09/14 12:14:20;;;;;;;5.07;4.60;;;26.60;35.00;;;;;;5019994;28;20222;-86
2021/09/14 12:16:58;;;;;;;7.15;4.80;;;26.80;35.10;;;;;;5026443;28;20237;-86
2021/09/14 12:19:25;;;;;;;5.20;4.80;;;27.00;35.40;;;;;;5030285;28;20214;-84
2021/09/14 12:21:52;;;;;;;5.82;4.97;;;27.00;33.50;;;;;;5024651;28;20317;-86
2021/09/14 12:24:19;;;;;;;5.40;4.82;;;27.00;32.90;;;;;;5018409;28;20195;-85
2021/09/14 12:26:50;;;;;;;5.65;5.15;;;26.90;32.90;;;;;;5022842;28;20765;-84
2021/09/14 12:29:20;;;;;;;5.70;5.15;;;26.70;34.70;;;;;;5027554;28;20198;-85
2021/09/14 12:31:47;;;;;;;5.72;5.18;;;26.40;36.60;;;;;;5029075;28;20226;-88
2021/09/14 12:34:17;;;;;;;6.43;4.93;;;26.20;37.00;;;;;;5035294;28;20195;-85
2021/09/14 12:36:45;;;;;;;5.55;5.00;;;26.20;37.00;;;;;;5023714;28;20309;-85
2021/09/14 12:39:14;;;;;;;5.18;4.68;;;26.40;34.90;;;;;;5027991;28;20227;-85
2021/09/14 12:41:41;;;;;;;6.10;5.45;;;26.50;34.50;;;;;;5027186;28;20236;-85
2021/09/14 12:44:09;;;;;;;6.22;5.25;;;26.40;37.10;;;;;;5030060;28;20194;-86
2021/09/14 12:46:38;;;;;;;5.35;4.85;;;26.40;36.10;;;;;;5020795;28;20217;-85
2021/09/14 12:49:05;;;;;;;5.88;5.35;;;26.50;35.90;;;;;;5032855;28;20214;-85
2021/09/14 12:51:32;;;;;;;5.78;5.25;;;26.60;34.90;;;;;;5030618;28;20196;-87
2021/09/14 12:53:59;;;;;;;6.13;5.32;;;26.60;34.50;;;;;;5030589;28;20286;-85
2021/09/14 12:56:26;;;;;;;6.80;5.05;;;26.60;34.80;;;;;;5030473;28;20278;-83
2021/09/14 12:58:53;;;;;;;6.03;5.53;;;26.60;33.30;;;;;;5037255;28;20281;-84
2021/09/14 13:01:21;;;;;;;6.13;5.40;;;26.50;35.80;;;;;;5036081;28;20234;-85
2021/09/14 13:03:51;;;;;;;6.45;5.85;;;26.50;34.50;;;;;;5034286;28;20212;-86
2021/09/14 13:06:18;;;;;;;5.53;5.13;;;26.50;36.10;;;;;;5024107;28;20306;-87
2021/09/14 13:08:45;;;;;;;7.15;5.13;;;26.50;34.20;;;;;;5021053;28;20291;-89
2021/09/14 13:11:13;;;;;;;5.80;5.10;;;26.50;33.80;;;;;;5023899;28;20325;-88
2021/09/14 13:16:26;;;;;;;5.80;5.30;;;26.50;33.80;;;;;;5018760;28;20198;-87
2021/09/14 13:18:55;;;;;;;6.40;5.38;;;26.50;35.50;;;;;;5020522;28;20207;-90
2021/09/14 13:21:23;;;;;;;6.38;5.63;;;26.30;37.00;;;;;;5028103;28;20199;-86
2021/09/14 13:23:51;;;;;;;7.13;5.18;;;26.40;37.10;;;;;;5022171;28;20333;-87
2021/09/14 13:26:19;;;;;;;5.50;5.00;;;26.40;37.10;;;;;;5027848;28;20608;-86
2021/09/14 13:28:47;;;;;;;5.93;5.38;;;26.50;37.20;;;;;;5032680;28;20226;-87
2021/09/14 13:31:15;;;;;;;5.45;4.90;;;26.30;36.00;;;;;;5030885;28;20205;-87
2021/09/14 13:33:44;;;;;;;6.13;5.15;;;26.30;36.50;;;;;;5033506;28;20283;-87
2021/09/14 13:36:14;;;;;;;5.47;4.88;;;26.30;36.90;;;;;;5023953;28;20285;-88
2021/09/14 13:38:41;;;;;;;6.40;5.00;;;26.50;34.60;;;;;;5030553;28;20223;-88
2021/09/14 13:41:09;;;;;;;6.28;4.82;;;26.60;35.10;;;;;;5038901;28;20262;-89
2021/09/14 13:43:49;;;;;;;6.20;4.78;;;26.40;34.80;;;;;;5039526;28;20265;-87
2021/09/14 13:46:15;;;;;;;5.50;4.35;;;26.60;35.60;;;;;;5033763;28;20689;-91
2021/09/14 13:48:44;;;;;;;5.85;5.40;;;26.40;35.30;;;;;;5029893;28;20229;-88
2021/09/14 13:51:14;;;;;;;6.28;4.70;;;26.40;34.50;;;;;;5031565;28;20663;-82
2021/09/14 13:59:18;;;;;;;5.28;4.75;;;26.60;35.60;;;;;;5000786;28;20215;-86
2021/09/14 14:01:45;;;;;;;5.93;5.22;;;26.60;37.20;;;;;;4992899;28;20256;-89
2021/09/14 14:04:12;;;;;;;5.40;4.80;;;26.80;37.40;;;;;;5037726;28;20213;-87
2021/09/14 14:06:46;;;;;;;8.27;5.20;;;26.90;35.60;;;;;;5017538;28;20570;-88
2021/09/14 14:09:13;;;;;;;6.78;5.20;;;26.80;34.90;;;;;;5018678;28;20301;-87
2021/09/14 14:11:39;;;;;;;5.80;5.30;;;26.50;35.30;;;;;;5031573;28;20304;-88
2021/09/14 14:14:08;;;;;;;6.68;5.32;;;26.30;37.00;;;;;;5033940;28;20220;-87
2021/09/14 14:16:35;;;;;;;5.93;5.32;;;26.10;36.90;;;;;;5029729;28;20226;-90
2021/09/14 14:19:02;;;;;;;5.85;5.20;;;26.10;38.10;;;;;;5027377;28;20194;-87
2021/09/14 14:21:29;;;;;;;5.47;4.97;;;26.10;39.20;;;;;;5035456;28;20205;-88
2021/09/14 14:23:57;;;;;;;6.47;5.03;;;26.10;37.00;;;;;;5028936;28;20206;-88
2021/09/14 14:26:24;;;;;;;6.00;5.50;;;26.10;36.90;;;;;;5030026;28;20201;-88
2021/09/14 14:28:52;;;;;;;5.47;4.93;;;26.20;37.00;;;;;;5025466;28;20210;-84
2021/09/14 14:31:19;;;;;;;5.60;5.10;;;26.30;37.00;;;;;;5038231;28;20195;-88
2021/09/14 14:33:46;;;;;;;5.18;4.68;;;26.40;37.10;;;;;;5035269;28;20204;-89
2021/09/14 14:36:13;;;;;;;8.02;6.20;;;26.50;37.20;;;;;;5025329;28;20210;-89
2021/09/14 14:38:42;;;;;;;6.95;5.28;;;26.40;36.40;;;;;;5031044;28;20279;-88
2021/09/14 14:41:11;;;;;;;5.03;4.63;;;26.30;37.00;;;;;;5033307;28;20647;-88
2021/09/14 14:43:38;;;;;;;6.40;5.05;;;26.20;37.00;;;;;;5028944;28;20221;-87
2021/09/14 14:46:05;;;;;;;5.60;4.97;;;26.20;37.00;;;;;;5025348;28;20592;-87
2021/09/14 14:48:33;;;;;;;5.63;5.13;;;26.10;36.90;;;;;;5024168;28;20317;-87
2021/09/14 14:51:01;;;;;;;6.32;5.50;;;25.90;36.80;;;;;;5022769;28;20702;-87
2021/09/14 14:53:27;;;;;;;7.15;5.07;;;25.70;36.70;;;;;;5025126;28;20250;-86
2021/09/14 14:55:54;;;;;;;7.00;5.38;;;25.60;37.20;;;;;;5027539;28;20291;-86
2021/09/14 14:58:26;;;;;;;7.82;5.28;;;25.50;39.30;;;;;;5022358;28;20226;-86
2021/09/14 15:00:53;;;;;;;7.80;5.20;;;25.50;39.70;;;;;;5004490;28;20225;-86
2021/09/14 15:03:21;;;;;;;7.25;5.05;;;25.60;38.90;;;;;;5024513;28;20292;-87
2021/09/14 15:05:48;;;;;;;5.80;5.30;;;25.70;39.30;;;;;;5025113;28;20213;-86